Dera Bugti Weather



Dera Bugti's Current Weather

Temprature 23.76o clear sky

clear sky

Rain: 0 %

Min Temprature23.76o
Max Temprature23.76o
Humidity26
Wind Speed0.62 m/h
Sun Rise06:03:42
Sun Set18:45:43
Current Time: 09-Apr-2020 02:13:01
Lat/Lon: 29.03, 69.15




Dera Bugti's Geo Location



Dera Bugti's Weather Forecast

Time Overall Temp Min Temp Max Temp Humidity Wind Speed Rain
09-Apr-2020 (Thu)
05:00:00 few clouds 22.500 22.500 22.500 27 0.25 m/h 0 %
08:00:00 few clouds 27.140 27.140 27.140 19 0.88 m/h 0 %
11:00:00 few clouds 30.330 30.330 30.330 17 3.89 m/h 0 %
14:00:00 overcast clouds 32.710 32.710 32.710 13 4.3 m/h 0 %
17:00:00 broken clouds 33.460 33.460 33.460 11 3.34 m/h 0 %
20:00:00 clear sky 30.120 30.120 30.120 15 2.07 m/h 0 %
23:00:00 clear sky 28.700 28.700 28.700 16 4.01 m/h 0 %
10-Apr-2020 (Fri)
02:00:00 broken clouds 26.150 26.150 26.150 23 3.15 m/h 0 %
05:00:00 broken clouds 24.890 24.890 24.890 25 2.73 m/h 0 %
08:00:00 broken clouds 27.410 27.410 27.410 21 1.23 m/h 0 %
11:00:00 scattered clouds 31.140 31.140 31.140 16 1.35 m/h 0 %
14:00:00 clear sky 33.140 33.140 33.140 14 2.67 m/h 0 %
17:00:00 few clouds 33.600 33.600 33.600 13 3.41 m/h 0 %
20:00:00 overcast clouds 30.760 30.760 30.760 18 1.47 m/h 0 %
23:00:00 overcast clouds 28.490 28.490 28.490 22 2.34 m/h 0 %
11-Apr-2020 (Sat)
02:00:00 overcast clouds 26.580 26.580 26.580 28 2.2 m/h 0 %
05:00:00 broken clouds 25.200 25.200 25.200 29 1.66 m/h 0 %
08:00:00 clear sky 28.590 28.590 28.590 22 0.98 m/h 0 %
11:00:00 few clouds 31.900 31.900 31.900 17 2.04 m/h 0 %
14:00:00 scattered clouds 34.210 34.210 34.210 15 3.93 m/h 0 %
17:00:00 scattered clouds 34.570 34.570 34.570 13 4.13 m/h 0 %
20:00:00 overcast clouds 31.590 31.590 31.590 18 2.34 m/h 0 %
23:00:00 overcast clouds 29.710 29.710 29.710 22 1.58 m/h 0 %
12-Apr-2020 (Sun)
02:00:00 overcast clouds 28.270 28.270 28.270 23 1.27 m/h 0 %
05:00:00 overcast clouds 26.770 26.770 26.770 24 0.96 m/h 0 %
08:00:00 few clouds 31.300 31.300 31.300 17 0.88 m/h 0 %
11:00:00 clear sky 35.430 35.430 35.430 13 3.22 m/h 0 %
14:00:00 clear sky 37.620 37.620 37.620 10 4.57 m/h 0 %
17:00:00 scattered clouds 37.360 37.360 37.360 10 5.01 m/h 0 %
20:00:00 scattered clouds 33.850 33.850 33.850 13 2.6 m/h 0 %
23:00:00 broken clouds 31.900 31.900 31.900 16 2.64 m/h 0 %
13-Apr-2020 (Mon)
02:00:00 scattered clouds 29.250 29.250 29.250 19 0.76 m/h 0 %
05:00:00 scattered clouds 28.360 28.360 28.360 19 2.37 m/h 0 %
08:00:00 clear sky 32.120 32.120 32.120 15 1.92 m/h 0 %
11:00:00 few clouds 36.540 36.540 36.540 9 0.55 m/h 0 %
14:00:00 clear sky 38.660 38.660 38.660 7 4.45 m/h 0 %
17:00:00 clear sky 38.120 38.120 38.120 7 4.41 m/h 0 %
20:00:00 clear sky 33.770 33.770 33.770 9 4.25 m/h 0 %
23:00:00 clear sky 31.110 31.110 31.110 11 2.1 m/h 0 %
14-Apr-2020 (Tue)
02:00:00 broken clouds 28.970 28.970 28.970 13 1.58 m/h 0 %

Famous Cities (61)